sensor_id;sensor_type;location;lat;lon;timestamp;temperature;humidity
20803;DHT22;10562;-33.856;151.182;2023-03-01T00:00:48;29.50;99.90
20803;DHT22;10562;-33.856;151.182;2023-03-01T00:03:21;29.70;99.90
20803;DHT22;10562;-33.856;151.182;2023-03-01T00:05:51;30.00;99.90
20803;DHT22;10562;-33.856;151.182;2023-03-01T00:08:22;30.00;99.90
20803;DHT22;10562;-33.856;151.182;2023-03-01T00:11:02;29.90;99.90
20803;DHT22;10562;-33.856;151.182;2023-03-01T00:13:33;29.90;99.90
20803;DHT22;10562;-33.856;151.182;2023-03-01T00:16:05;29.90;99.90
20803;DHT22;10562;-33.856;151.182;2023-03-01T00:18:37;29.90;99.90
20803;DHT22;10562;-33.856;151.182;2023-03-01T00:21:08;30.00;99.90
20803;DHT22;10562;-33.856;151.182;2023-03-01T00:23:39;30.10;99.90
20803;DHT22;10562;-33.856;151.182;2023-03-01T00:26:12;30.10;99.90
20803;DHT22;10562;-33.856;151.182;2023-03-01T00:28:43;30.40;99.90
20803;DHT22;10562;-33.856;151.182;2023-03-01T00:31:15;30.30;99.90
20803;DHT22;10562;-33.856;151.182;2023-03-01T00:33:48;30.40;99.90
20803;DHT22;10562;-33.856;151.182;2023-03-01T00:36:19;30.70;99.90
20803;DHT22;10562;-33.856;151.182;2023-03-01T00:38:50;30.60;99.90
20803;DHT22;10562;-33.856;151.182;2023-03-01T00:41:21;30.70;99.90
20803;DHT22;10562;-33.856;151.182;2023-03-01T00:43:54;30.50;99.90
20803;DHT22;10562;-33.856;151.182;2023-03-01T00:46:27;30.50;99.90
20803;DHT22;10562;-33.856;151.182;2023-03-01T00:48:59;30.40;99.90
20803;DHT22;10562;-33.856;151.182;2023-03-01T00:51:32;30.70;99.90
20803;DHT22;10562;-33.856;151.182;2023-03-01T00:54:03;30.20;99.90
20803;DHT22;10562;-33.856;151.182;2023-03-01T00:56:34;30.10;99.90
20803;DHT22;10562;-33.856;151.182;2023-03-01T00:59:05;29.90;99.90
20803;DHT22;10562;-33.856;151.182;2023-03-01T01:01:36;30.00;99.90
20803;DHT22;10562;-33.856;151.182;2023-03-01T01:04:09;30.10;99.90
20803;DHT22;10562;-33.856;151.182;2023-03-01T01:06:41;30.30;99.90
20803;DHT22;10562;-33.856;151.182;2023-03-01T01:09:14;30.40;99.90
20803;DHT22;10562;-33.856;151.182;2023-03-01T01:11:47;30.40;99.90
20803;DHT22;10562;-33.856;151.182;2023-03-01T01:14:19;29.90;99.90
20803;DHT22;10562;-33.856;151.182;2023-03-01T01:16:50;29.90;99.90
20803;DHT22;10562;-33.856;151.182;2023-03-01T01:19:23;29.90;99.90
20803;DHT22;10562;-33.856;151.182;2023-03-01T01:21:54;29.80;99.90
20803;DHT22;10562;-33.856;151.182;2023-03-01T01:24:25;29.60;99.90
20803;DHT22;10562;-33.856;151.182;2023-03-01T01:26:55;29.50;99.90
20803;DHT22;10562;-33.856;151.182;2023-03-01T01:29:27;29.50;99.90
20803;DHT22;10562;-33.856;151.182;2023-03-01T01:31:57;29.40;99.90
20803;DHT22;10562;-33.856;151.182;2023-03-01T01:34:30;29.60;99.90
20803;DHT22;10562;-33.856;151.182;2023-03-01T01:37:01;29.80;99.90
20803;DHT22;10562;-33.856;151.182;2023-03-01T01:39:35;29.70;99.90
20803;DHT22;10562;-33.856;151.182;2023-03-01T01:42:08;29.80;99.90
20803;DHT22;10562;-33.856;151.182;2023-03-01T01:44:42;30.00;99.90
20803;DHT22;10562;-33.856;151.182;2023-03-01T01:47:15;30.00;99.90
20803;DHT22;10562;-33.856;151.182;2023-03-01T01:49:50;30.00;99.90
20803;DHT22;10562;-33.856;151.182;2023-03-01T01:52:24;30.10;99.90
20803;DHT22;10562;-33.856;151.182;2023-03-01T01:54:59;30.30;99.90
20803;DHT22;10562;-33.856;151.182;2023-03-01T01:57:34;30.40;99.90
20803;DHT22;10562;-33.856;151.182;2023-03-01T02:00:07;30.60;99.90
20803;DHT22;10562;-33.856;151.182;2023-03-01T02:02:39;30.90;99.90
20803;DHT22;10562;-33.856;151.182;2023-03-01T02:05:16;31.20;99.90
20803;DHT22;10562;-33.856;151.182;2023-03-01T02:07:50;31.00;99.90
20803;DHT22;10562;-33.856;151.182;2023-03-01T02:10:22;31.10;99.90
20803;DHT22;10562;-33.856;151.182;2023-03-01T02:12:54;31.40;99.90
20803;DHT22;10562;-33.856;151.182;2023-03-01T02:15:26;31.10;99.90
20803;DHT22;10562;-33.856;151.182;2023-03-01T02:17:57;31.00;99.90
20803;DHT22;10562;-33.856;151.182;2023-03-01T02:20:35;31.10;99.90
20803;DHT22;10562;-33.856;151.182;2023-03-01T02:23:08;31.10;99.90
20803;DHT22;10562;-33.856;151.182;2023-03-01T02:25:46;31.20;99.90
20803;DHT22;10562;-33.856;151.182;2023-03-01T02:28:37;31.20;99.90
20803;DHT22;10562;-33.856;151.182;2023-03-01T02:31:10;31.30;99.90
20803;DHT22;10562;-33.856;151.182;2023-03-01T02:33:58;31.50;99.90
20803;DHT22;10562;-33.856;151.182;2023-03-01T02:36:35;31.60;99.90
20803;DHT22;10562;-33.856;151.182;2023-03-01T02:39:07;31.60;99.90
20803;DHT22;10562;-33.856;151.182;2023-03-01T02:41:45;31.70;99.90
20803;DHT22;10562;-33.856;151.182;2023-03-01T02:44:18;32.00;99.90
20803;DHT22;10562;-33.856;151.182;2023-03-01T02:46:50;32.00;99.90
20803;DHT22;10562;-33.856;151.182;2023-03-01T02:49:24;31.70;99.90
20803;DHT22;10562;-33.856;151.182;2023-03-01T02:54:59;30.70;99.90
20803;DHT22;10562;-33.856;151.182;2023-03-01T02:57:31;30.40;99.90
20803;DHT22;10562;-33.856;151.182;2023-03-01T03:00:07;30.30;99.90
20803;DHT22;10562;-33.856;151.182;2023-03-01T03:02:47;30.40;99.90
20803;DHT22;10562;-33.856;151.182;2023-03-01T03:05:19;30.50;99.90
20803;DHT22;10562;-33.856;151.182;2023-03-01T03:07:51;30.40;99.90
20803;DHT22;10562;-33.856;151.182;2023-03-01T03:10:23;30.40;99.90
20803;DHT22;10562;-33.856;151.182;2023-03-01T03:12:57;30.50;99.90
20803;DHT22;10562;-33.856;151.182;2023-03-01T03:15:31;30.90;99.90
20803;DHT22;10562;-33.856;151.182;2023-03-01T03:18:04;31.20;99.90
20803;DHT22;10562;-33.856;151.182;2023-03-01T03:20:35;31.30;99.90
20803;DHT22;10562;-33.856;151.182;2023-03-01T03:23:06;31.50;99.90
20803;DHT22;10562;-33.856;151.182;2023-03-01T03:25:37;31.30;99.90
20803;DHT22;10562;-33.856;151.182;2023-03-01T03:28:08;31.40;99.90
20803;DHT22;10562;-33.856;151.182;2023-03-01T03:30:42;31.40;99.90
20803;DHT22;10562;-33.856;151.182;2023-03-01T03:33:14;31.10;99.90
20803;DHT22;10562;-33.856;151.182;2023-03-01T03:35:46;31.10;99.90
20803;DHT22;10562;-33.856;151.182;2023-03-01T03:38:19;31.10;99.90
20803;DHT22;10562;-33.856;151.182;2023-03-01T03:40:51;31.20;99.90
20803;DHT22;10562;-33.856;151.182;2023-03-01T03:43:22;31.30;99.90
20803;DHT22;10562;-33.856;151.182;2023-03-01T03:45:55;30.60;99.90
20803;DHT22;10562;-33.856;151.182;2023-03-01T03:48:27;30.40;99.90
20803;DHT22;10562;-33.856;151.182;2023-03-01T03:50:58;30.10;99.90
20803;DHT22;10562;-33.856;151.182;2023-03-01T03:53:29;30.00;99.90
20803;DHT22;10562;-33.856;151.182;2023-03-01T03:56:00;29.90;99.90
20803;DHT22;10562;-33.856;151.182;2023-03-01T03:58:30;29.80;99.90
20803;DHT22;10562;-33.856;151.182;2023-03-01T04:01:03;29.60;99.90
20803;DHT22;10562;-33.856;151.182;2023-03-01T04:03:34;29.50;99.90
20803;DHT22;10562;-33.856;151.182;2023-03-01T04:06:05;29.50;99.90
20803;DHT22;10562;-33.856;151.182;2023-03-01T04:08:36;29.70;99.90
20803;DHT22;10562;-33.856;151.182;2023-03-01T04:11:08;29.80;99.90
20803;DHT22;10562;-33.856;151.182;2023-03-01T04:13:58;29.80;99.90
20803;DHT22;10562;-33.856;151.182;2023-03-01T04:16:31;29.60;99.90
20803;DHT22;10562;-33.856;151.182;2023-03-01T04:19:01;29.40;99.90
20803;DHT22;10562;-33.856;151.182;2023-03-01T04:21:34;29.30;99.90
20803;DHT22;10562;-33.856;151.182;2023-03-01T04:24:06;29.30;99.90
20803;DHT22;10562;-33.856;151.182;2023-03-01T04:26:37;29.20;99.90
20803;DHT22;10562;-33.856;151.182;2023-03-01T04:29:08;29.10;99.90
20803;DHT22;10562;-33.856;151.182;2023-03-01T04:31:41;29.00;99.90
20803;DHT22;10562;-33.856;151.182;2023-03-01T04:34:11;29.10;99.90
20803;DHT22;10562;-33.856;151.182;2023-03-01T04:36:42;29.10;99.90
20803;DHT22;10562;-33.856;151.182;2023-03-01T04:39:13;29.00;99.90
20803;DHT22;10562;-33.856;151.182;2023-03-01T04:41:44;29.10;99.90
20803;DHT22;10562;-33.856;151.182;2023-03-01T04:44:14;29.10;99.90
20803;DHT22;10562;-33.856;151.182;2023-03-01T04:46:49;29.00;99.90
20803;DHT22;10562;-33.856;151.182;2023-03-01T04:49:20;29.10;99.90
20803;DHT22;10562;-33.856;151.182;2023-03-01T04:51:51;28.90;99.90
20803;DHT22;10562;-33.856;151.182;2023-03-01T04:54:22;28.80;99.90
20803;DHT22;10562;-33.856;151.182;2023-03-01T04:56:54;28.70;99.90
20803;DHT22;10562;-33.856;151.182;2023-03-01T04:59:25;28.60;99.90
20803;DHT22;10562;-33.856;151.182;2023-03-01T05:01:58;28.70;99.90
20803;DHT22;10562;-33.856;151.182;2023-03-01T05:04:30;28.70;99.90
20803;DHT22;10562;-33.856;151.182;2023-03-01T05:07:01;28.90;99.90
20803;DHT22;10562;-33.856;151.182;2023-03-01T05:09:31;28.90;99.90
20803;DHT22;10562;-33.856;151.182;2023-03-01T05:12:02;28.90;99.90
20803;DHT22;10562;-33.856;151.182;2023-03-01T05:14:33;28.90;99.90
20803;DHT22;10562;-33.856;151.182;2023-03-01T05:17:06;28.90;99.90
20803;DHT22;10562;-33.856;151.182;2023-03-01T05:19:37;28.90;99.90
20803;DHT22;10562;-33.856;151.182;2023-03-01T05:22:10;28.90;99.90
20803;DHT22;10562;-33.856;151.182;2023-03-01T05:24:41;29.00;99.90
20803;DHT22;10562;-33.856;151.182;2023-03-01T05:27:12;29.00;99.90
20803;DHT22;10562;-33.856;151.182;2023-03-01T05:29:42;28.70;99.90
20803;DHT22;10562;-33.856;151.182;2023-03-01T05:32:15;28.40;99.90
20803;DHT22;10562;-33.856;151.182;2023-03-01T05:34:46;28.60;99.90
20803;DHT22;10562;-33.856;151.182;2023-03-01T05:37:17;28.40;99.90
20803;DHT22;10562;-33.856;151.182;2023-03-01T05:39:47;28.60;99.90
20803;DHT22;10562;-33.856;151.182;2023-03-01T05:42:19;28.90;99.90
20803;DHT22;10562;-33.856;151.182;2023-03-01T05:44:50;28.90;99.90
20803;DHT22;10562;-33.856;151.182;2023-03-01T05:47:22;28.90;99.90
20803;DHT22;10562;-33.856;151.182;2023-03-01T05:49:53;28.90;99.90
20803;DHT22;10562;-33.856;151.182;2023-03-01T05:52:24;28.90;99.90
20803;DHT22;10562;-33.856;151.182;2023-03-01T05:54:55;28.70;99.90
20803;DHT22;10562;-33.856;151.182;2023-03-01T05:57:25;28.50;99.90
20803;DHT22;10562;-33.856;151.182;2023-03-01T05:59:58;28.30;99.90
20803;DHT22;10562;-33.856;151.182;2023-03-01T06:02:30;28.40;99.90
20803;DHT22;10562;-33.856;151.182;2023-03-01T06:05:01;28.70;99.90
20803;DHT22;10562;-33.856;151.182;2023-03-01T06:07:32;28.60;99.90
20803;DHT22;10562;-33.856;151.182;2023-03-01T06:10:03;28.30;99.90
20803;DHT22;10562;-33.856;151.182;2023-03-01T06:12:35;28.10;99.90
20803;DHT22;10562;-33.856;151.182;2023-03-01T06:15:06;28.40;99.90
20803;DHT22;10562;-33.856;151.182;2023-03-01T06:17:40;28.50;99.90
20803;DHT22;10562;-33.856;151.182;2023-03-01T06:20:15;28.40;99.90
20803;DHT22;10562;-33.856;151.182;2023-03-01T06:22:47;28.40;99.90
20803;DHT22;10562;-33.856;151.182;2023-03-01T06:25:20;28.30;99.90
20803;DHT22;10562;-33.856;151.182;2023-03-01T06:27:51;28.10;99.90
20803;DHT22;10562;-33.856;151.182;2023-03-01T06:30:23;28.10;99.90
20803;DHT22;10562;-33.856;151.182;2023-03-01T06:32:57;28.10;99.90
20803;DHT22;10562;-33.856;151.182;2023-03-01T06:35:29;28.10;99.90
20803;DHT22;10562;-33.856;151.182;2023-03-01T06:38:01;27.90;99.90
20803;DHT22;10562;-33.856;151.182;2023-03-01T06:40:32;28.00;99.90
20803;DHT22;10562;-33.856;151.182;2023-03-01T06:43:04;27.80;99.90
20803;DHT22;10562;-33.856;151.182;2023-03-01T06:45:35;27.50;99.90
20803;DHT22;10562;-33.856;151.182;2023-03-01T06:48:09;27.40;99.90
20803;DHT22;10562;-33.856;151.182;2023-03-01T06:50:40;27.00;99.90
20803;DHT22;10562;-33.856;151.182;2023-03-01T06:53:11;27.10;99.90
20803;DHT22;10562;-33.856;151.182;2023-03-01T06:55:42;27.20;99.90
20803;DHT22;10562;-33.856;151.182;2023-03-01T06:58:12;27.00;99.90
20803;DHT22;10562;-33.856;151.182;2023-03-01T07:00:43;26.90;99.90
20803;DHT22;10562;-33.856;151.182;2023-03-01T07:03:16;26.70;99.90
20803;DHT22;10562;-33.856;151.182;2023-03-01T07:05:48;26.30;99.90
20803;DHT22;10562;-33.856;151.182;2023-03-01T07:08:20;25.90;99.90
20803;DHT22;10562;-33.856;151.182;2023-03-01T07:10:56;25.90;99.90
20803;DHT22;10562;-33.856;151.182;2023-03-01T07:13:27;26.10;99.90
20803;DHT22;10562;-33.856;151.182;2023-03-01T07:15:57;26.40;99.90
20803;DHT22;10562;-33.856;151.182;2023-03-01T07:18:30;26.80;99.90
20803;DHT22;10562;-33.856;151.182;2023-03-01T07:21:05;27.00;99.90
20803;DHT22;10562;-33.856;151.182;2023-03-01T07:23:36;27.00;99.90
20803;DHT22;10562;-33.856;151.182;2023-03-01T07:26:07;27.20;99.90
20803;DHT22;10562;-33.856;151.182;2023-03-01T07:28:38;27.00;99.90
20803;DHT22;10562;-33.856;151.182;2023-03-01T07:31:09;26.80;99.90
20803;DHT22;10562;-33.856;151.182;2023-03-01T07:33:42;26.70;99.90
20803;DHT22;10562;-33.856;151.182;2023-03-01T07:36:13;26.30;99.90
20803;DHT22;10562;-33.856;151.182;2023-03-01T07:38:44;25.80;99.90
20803;DHT22;10562;-33.856;151.182;2023-03-01T07:41:15;25.60;99.90
20803;DHT22;10562;-33.856;151.182;2023-03-01T07:43:45;25.20;99.90
20803;DHT22;10562;-33.856;151.182;2023-03-01T07:46:16;25.00;99.90
20803;DHT22;10562;-33.856;151.182;2023-03-01T07:48:49;24.90;99.90
20803;DHT22;10562;-33.856;151.182;2023-03-01T07:51:20;24.80;99.90
20803;DHT22;10562;-33.856;151.182;2023-03-01T07:53:51;24.70;99.90
20803;DHT22;10562;-33.856;151.182;2023-03-01T07:56:21;24.60;99.90
20803;DHT22;10562;-33.856;151.182;2023-03-01T07:58:52;24.60;99.90
20803;DHT22;10562;-33.856;151.182;2023-03-01T08:01:23;24.50;99.90
20803;DHT22;10562;-33.856;151.182;2023-03-01T08:03:56;24.30;99.90
20803;DHT22;10562;-33.856;151.182;2023-03-01T08:06:27;24.30;99.90
20803;DHT22;10562;-33.856;151.182;2023-03-01T08:08:57;24.30;99.90
20803;DHT22;10562;-33.856;151.182;2023-03-01T08:11:28;24.30;99.90
20803;DHT22;10562;-33.856;151.182;2023-03-01T08:13:59;24.20;99.90
20803;DHT22;10562;-33.856;151.182;2023-03-01T08:16:30;24.20;99.90
20803;DHT22;10562;-33.856;151.182;2023-03-01T08:19:07;24.10;99.90
20803;DHT22;10562;-33.856;151.182;2023-03-01T08:21:38;24.10;99.90
20803;DHT22;10562;-33.856;151.182;2023-03-01T08:24:09;24.00;99.90
20803;DHT22;10562;-33.856;151.182;2023-03-01T08:26:40;24.00;99.90
20803;DHT22;10562;-33.856;151.182;2023-03-01T08:29:11;23.90;99.90
20803;DHT22;10562;-33.856;151.182;2023-03-01T08:31:42;23.90;99.90
20803;DHT22;10562;-33.856;151.182;2023-03-01T08:34:17;23.90;99.90
20803;DHT22;10562;-33.856;151.182;2023-03-01T08:36:48;23.90;99.90
20803;DHT22;10562;-33.856;151.182;2023-03-01T08:39:20;23.90;99.90
20803;DHT22;10562;-33.856;151.182;2023-03-01T08:41:51;23.80;99.90
20803;DHT22;10562;-33.856;151.182;2023-03-01T08:44:21;23.80;99.90
20803;DHT22;10562;-33.856;151.182;2023-03-01T08:46:52;23.80;99.90
20803;DHT22;10562;-33.856;151.182;2023-03-01T08:49:25;23.80;99.90
20803;DHT22;10562;-33.856;151.182;2023-03-01T08:51:56;23.80;99.90
20803;DHT22;10562;-33.856;151.182;2023-03-01T08:54:27;23.70;99.90
20803;DHT22;10562;-33.856;151.182;2023-03-01T08:56:58;23.70;99.90
20803;DHT22;10562;-33.856;151.182;2023-03-01T08:59:31;23.70;99.90
20803;DHT22;10562;-33.856;151.182;2023-03-01T09:02:05;23.60;99.90
20803;DHT22;10562;-33.856;151.182;2023-03-01T09:04:38;23.60;99.90
20803;DHT22;10562;-33.856;151.182;2023-03-01T09:07:09;23.60;99.90
20803;DHT22;10562;-33.856;151.182;2023-03-01T09:09:40;23.70;99.90
20803;DHT22;10562;-33.856;151.182;2023-03-01T09:12:11;23.60;99.90
20803;DHT22;10562;-33.856;151.182;2023-03-01T09:14:41;23.60;99.90
20803;DHT22;10562;-33.856;151.182;2023-03-01T09:17:12;23.70;99.90
20803;DHT22;10562;-33.856;151.182;2023-03-01T09:19:45;23.70;99.90
20803;DHT22;10562;-33.856;151.182;2023-03-01T09:22:17;23.60;99.90
20803;DHT22;10562;-33.856;151.182;2023-03-01T09:24:48;23.60;99.90
20803;DHT22;10562;-33.856;151.182;2023-03-01T09:27:19;23.60;99.90
20803;DHT22;10562;-33.856;151.182;2023-03-01T09:29:49;23.60;99.90
20803;DHT22;10562;-33.856;151.182;2023-03-01T09:32:20;23.60;99.90
20803;DHT22;10562;-33.856;151.182;2023-03-01T09:34:53;23.60;99.90
20803;DHT22;10562;-33.856;151.182;2023-03-01T09:37:36;23.60;99.90
20803;DHT22;10562;-33.856;151.182;2023-03-01T09:40:11;23.60;99.90
20803;DHT22;10562;-33.856;151.182;2023-03-01T09:42:51;23.70;99.90
20803;DHT22;10562;-33.856;151.182;2023-03-01T09:45:28;23.60;99.90
20803;DHT22;10562;-33.856;151.182;2023-03-01T09:48:00;23.70;99.90
20803;DHT22;10562;-33.856;151.182;2023-03-01T09:50:38;23.60;99.90
20803;DHT22;10562;-33.856;151.182;2023-03-01T09:53:13;23.70;99.90
20803;DHT22;10562;-33.856;151.182;2023-03-01T09:55:48;23.60;99.90
20803;DHT22;10562;-33.856;151.182;2023-03-01T09:58:37;23.60;99.90
20803;DHT22;10562;-33.856;151.182;2023-03-01T10:01:30;23.60;99.90
20803;DHT22;10562;-33.856;151.182;2023-03-01T10:04:16;23.50;99.90
20803;DHT22;10562;-33.856;151.182;2023-03-01T10:07:00;23.60;99.90
20803;DHT22;10562;-33.856;151.182;2023-03-01T10:09:35;23.50;99.90
20803;DHT22;10562;-33.856;151.182;2023-03-01T10:12:11;23.50;99.90
20803;DHT22;10562;-33.856;151.182;2023-03-01T10:14:48;23.50;99.90
20803;DHT22;10562;-33.856;151.182;2023-03-01T10:17:27;23.50;99.90
20803;DHT22;10562;-33.856;151.182;2023-03-01T10:20:17;23.50;99.90
20803;DHT22;10562;-33.856;151.182;2023-03-01T10:22:51;23.40;99.90
20803;DHT22;10562;-33.856;151.182;2023-03-01T10:25:38;23.50;99.90
20803;DHT22;10562;-33.856;151.182;2023-03-01T10:28:18;23.40;99.90
20803;DHT22;10562;-33.856;151.182;2023-03-01T10:30:50;23.50;99.90
20803;DHT22;10562;-33.856;151.182;2023-03-01T10:33:23;23.50;99.90
20803;DHT22;10562;-33.856;151.182;2023-03-01T10:35:55;23.50;99.90
20803;DHT22;10562;-33.856;151.182;2023-03-01T10:38:31;23.40;99.90
20803;DHT22;10562;-33.856;151.182;2023-03-01T10:41:17;23.40;99.90
20803;DHT22;10562;-33.856;151.182;2023-03-01T10:43:49;23.40;99.90
20803;DHT22;10562;-33.856;151.182;2023-03-01T10:46:29;23.40;99.90
20803;DHT22;10562;-33.856;151.182;2023-03-01T10:49:15;23.40;99.90
20803;DHT22;10562;-33.856;151.182;2023-03-01T10:51:46;23.30;99.90
20803;DHT22;10562;-33.856;151.182;2023-03-01T10:54:21;23.30;99.90
20803;DHT22;10562;-33.856;151.182;2023-03-01T10:56:54;23.30;99.90
20803;DHT22;10562;-33.856;151.182;2023-03-01T10:59:28;23.10;99.90
20803;DHT22;10562;-33.856;151.182;2023-03-01T11:02:17;23.00;99.90
20803;DHT22;10562;-33.856;151.182;2023-03-01T11:04:59;22.80;99.90
20803;DHT22;10562;-33.856;151.182;2023-03-01T11:07:30;22.70;99.90
20803;DHT22;10562;-33.856;151.182;2023-03-01T11:10:22;22.60;99.90
20803;DHT22;10562;-33.856;151.182;2023-03-01T11:12:53;22.50;99.90
20803;DHT22;10562;-33.856;151.182;2023-03-01T11:15:27;22.50;99.90
20803;DHT22;10562;-33.856;151.182;2023-03-01T11:17:58;22.50;99.90
20803;DHT22;10562;-33.856;151.182;2023-03-01T11:20:35;22.50;99.90
20803;DHT22;10562;-33.856;151.182;2023-03-01T11:23:10;22.50;99.90
20803;DHT22;10562;-33.856;151.182;2023-03-01T11:25:48;22.40;99.90
20803;DHT22;10562;-33.856;151.182;2023-03-01T11:28:22;22.50;99.90
20803;DHT22;10562;-33.856;151.182;2023-03-01T11:30:55;22.50;99.90
20803;DHT22;10562;-33.856;151.182;2023-03-01T11:33:36;22.40;99.90
20803;DHT22;10562;-33.856;151.182;2023-03-01T11:36:15;22.40;99.90
20803;DHT22;10562;-33.856;151.182;2023-03-01T11:38:47;22.50;99.90
20803;DHT22;10562;-33.856;151.182;2023-03-01T11:41:21;22.40;99.90
20803;DHT22;10562;-33.856;151.182;2023-03-01T11:43:56;22.40;99.90
20803;DHT22;10562;-33.856;151.182;2023-03-01T11:46:45;22.50;99.90
20803;DHT22;10562;-33.856;151.182;2023-03-01T11:49:45;22.50;99.90
20803;DHT22;10562;-33.856;151.182;2023-03-01T11:52:24;22.50;99.90
20803;DHT22;10562;-33.856;151.182;2023-03-01T11:55:14;22.50;99.90
20803;DHT22;10562;-33.856;151.182;2023-03-01T11:58:08;22.50;99.90
20803;DHT22;10562;-33.856;151.182;2023-03-01T12:01:00;22.50;99.90
20803;DHT22;10562;-33.856;151.182;2023-03-01T12:03:52;22.50;99.90
20803;DHT22;10562;-33.856;151.182;2023-03-01T12:06:35;22.50;99.90
20803;DHT22;10562;-33.856;151.182;2023-03-01T12:09:19;22.40;99.90
20803;DHT22;10562;-33.856;151.182;2023-03-01T12:12:11;22.40;99.90
20803;DHT22;10562;-33.856;151.182;2023-03-01T12:14:56;22.40;99.90
20803;DHT22;10562;-33.856;151.182;2023-03-01T12:17:54;22.30;99.90
20803;DHT22;10562;-33.856;151.182;2023-03-01T12:20:30;22.30;99.90
20803;DHT22;10562;-33.856;151.182;2023-03-01T12:23:29;22.20;99.90
20803;DHT22;10562;-33.856;151.182;2023-03-01T12:26:09;22.20;99.90
20803;DHT22;10562;-33.856;151.182;2023-03-01T12:29:08;22.10;99.90
20803;DHT22;10562;-33.856;151.182;2023-03-01T12:35:12;22.10;99.90
20803;DHT22;10562;-33.856;151.182;2023-03-01T12:37:56;22.00;99.90
20803;DHT22;10562;-33.856;151.182;2023-03-01T12:40:39;22.00;99.90
20803;DHT22;10562;-33.856;151.182;2023-03-01T12:43:24;21.90;99.90
20803;DHT22;10562;-33.856;151.182;2023-03-01T12:46:08;21.90;99.90
20803;DHT22;10562;-33.856;151.182;2023-03-01T12:48:50;21.90;99.90
20803;DHT22;10562;-33.856;151.182;2023-03-01T12:51:26;21.90;99.90
20803;DHT22;10562;-33.856;151.182;2023-03-01T12:54:00;21.90;99.90
20803;DHT22;10562;-33.856;151.182;2023-03-01T12:56:36;21.90;99.90
20803;DHT22;10562;-33.856;151.182;2023-03-01T12:59:15;21.80;99.90
20803;DHT22;10562;-33.856;151.182;2023-03-01T13:01:52;21.80;99.90
20803;DHT22;10562;-33.856;151.182;2023-03-01T13:04:46;21.80;99.90
20803;DHT22;10562;-33.856;151.182;2023-03-01T13:07:30;21.70;99.90
20803;DHT22;10562;-33.856;151.182;2023-03-01T13:10:21;21.80;99.90
20803;DHT22;10562;-33.856;151.182;2023-03-01T13:13:02;21.90;99.90
20803;DHT22;10562;-33.856;151.182;2023-03-01T13:15:35;21.80;99.90
20803;DHT22;10562;-33.856;151.182;2023-03-01T13:18:29;21.80;99.90
20803;DHT22;10562;-33.856;151.182;2023-03-01T13:21:02;21.80;99.90
20803;DHT22;10562;-33.856;151.182;2023-03-01T13:23:37;21.80;99.90
20803;DHT22;10562;-33.856;151.182;2023-03-01T13:26:13;21.80;99.90
20803;DHT22;10562;-33.856;151.182;2023-03-01T13:29:01;21.80;99.90
20803;DHT22;10562;-33.856;151.182;2023-03-01T13:31:58;21.90;99.90
20803;DHT22;10562;-33.856;151.182;2023-03-01T13:34:54;22.00;99.90
20803;DHT22;10562;-33.856;151.182;2023-03-01T13:37:33;22.00;99.90
20803;DHT22;10562;-33.856;151.182;2023-03-01T13:43:34;22.20;99.90
20803;DHT22;10562;-33.856;151.182;2023-03-01T13:46:11;22.30;99.90
20803;DHT22;10562;-33.856;151.182;2023-03-01T13:48:45;22.30;99.90
20803;DHT22;10562;-33.856;151.182;2023-03-01T13:51:23;22.30;99.90
20803;DHT22;10562;-33.856;151.182;2023-03-01T13:53:55;22.30;99.90
20803;DHT22;10562;-33.856;151.182;2023-03-01T13:56:33;22.30;99.90
20803;DHT22;10562;-33.856;151.182;2023-03-01T13:59:13;22.30;99.90
20803;DHT22;10562;-33.856;151.182;2023-03-01T14:01:44;22.20;99.90
20803;DHT22;10562;-33.856;151.182;2023-03-01T14:04:22;22.10;99.90
20803;DHT22;10562;-33.856;151.182;2023-03-01T14:07:10;22.10;99.90
20803;DHT22;10562;-33.856;151.182;2023-03-01T14:09:44;22.00;99.90
20803;DHT22;10562;-33.856;151.182;2023-03-01T14:12:26;22.00;99.90
20803;DHT22;10562;-33.856;151.182;2023-03-01T14:15:06;22.00;99.90
20803;DHT22;10562;-33.856;151.182;2023-03-01T14:17:55;21.90;99.90
20803;DHT22;10562;-33.856;151.182;2023-03-01T14:20:29;21.90;99.90
20803;DHT22;10562;-33.856;151.182;2023-03-01T14:23:02;21.80;99.90
20803;DHT22;10562;-33.856;151.182;2023-03-01T14:25:38;21.80;99.90
20803;DHT22;10562;-33.856;151.182;2023-03-01T14:28:20;21.80;99.90
20803;DHT22;10562;-33.856;151.182;2023-03-01T14:30:53;21.70;99.90
20803;DHT22;10562;-33.856;151.182;2023-03-01T14:33:25;21.70;99.90
20803;DHT22;10562;-33.856;151.182;2023-03-01T14:35:58;21.70;99.90
20803;DHT22;10562;-33.856;151.182;2023-03-01T14:38:34;21.80;99.90
20803;DHT22;10562;-33.856;151.182;2023-03-01T14:41:07;21.80;99.90
20803;DHT22;10562;-33.856;151.182;2023-03-01T14:43:43;21.90;99.90
20803;DHT22;10562;-33.856;151.182;2023-03-01T14:46:20;21.90;99.90
20803;DHT22;10562;-33.856;151.182;2023-03-01T14:48:52;22.00;99.90
20803;DHT22;10562;-33.856;151.182;2023-03-01T14:51:24;22.00;99.90
20803;DHT22;10562;-33.856;151.182;2023-03-01T14:53:55;22.10;99.90
20803;DHT22;10562;-33.856;151.182;2023-03-01T14:56:26;22.10;99.90
20803;DHT22;10562;-33.856;151.182;2023-03-01T14:59:02;22.10;99.90
20803;DHT22;10562;-33.856;151.182;2023-03-01T15:01:33;22.00;99.90
20803;DHT22;10562;-33.856;151.182;2023-03-01T15:04:04;22.00;99.90
20803;DHT22;10562;-33.856;151.182;2023-03-01T15:06:35;21.90;99.90
20803;DHT22;10562;-33.856;151.182;2023-03-01T15:09:06;21.80;99.90
20803;DHT22;10562;-33.856;151.182;2023-03-01T15:11:37;21.80;99.90
20803;DHT22;10562;-33.856;151.182;2023-03-01T15:14:40;21.70;99.90
20803;DHT22;10562;-33.856;151.182;2023-03-01T15:17:26;21.70;99.90
20803;DHT22;10562;-33.856;151.182;2023-03-01T15:20:00;21.60;99.90
20803;DHT22;10562;-33.856;151.182;2023-03-01T15:22:31;21.50;99.90
20803;DHT22;10562;-33.856;151.182;2023-03-01T15:25:02;21.50;99.90
20803;DHT22;10562;-33.856;151.182;2023-03-01T15:27:33;21.50;99.90
20803;DHT22;10562;-33.856;151.182;2023-03-01T15:30:13;21.50;99.90
20803;DHT22;10562;-33.856;151.182;2023-03-01T15:32:47;21.40;99.90
20803;DHT22;10562;-33.856;151.182;2023-03-01T15:35:39;21.30;99.90
20803;DHT22;10562;-33.856;151.182;2023-03-01T15:38:28;21.30;99.90
20803;DHT22;10562;-33.856;151.182;2023-03-01T15:41:00;21.20;99.90
20803;DHT22;10562;-33.856;151.182;2023-03-01T15:43:42;21.20;99.90